Time;durP1;ratioP1;P1;durP2;ratioP2;P2;SDS_P1;SDS_P2;PMS_P1;PMS_P2;Temp;Humidity;BMP_temperature;BMP_pressure;BME280_temperature;BME280_humidity;BME280_pressure;Samples;Min_cycle;Max_cycle;Signal;HPM_P1;HPM_P2
2023/05/16 05:01:48;;;;;;;;;4.33;3.67;;;;;10.81;68.35;101955.38;6192869;22;45652;-55
2023/05/16 05:04:14;;;;;;;;;4.67;4.00;;;;;10.88;68.18;101959.59;6213168;22;65997;-55
2023/05/16 05:06:40;;;;;;;;;6.00;3.33;;;;;10.92;68.09;101959.47;6212448;22;75540;-56
2023/05/16 05:09:05;;;;;;;;;5.00;5.00;;;;;10.98;67.95;101955.72;6215176;22;45652;-56
2023/05/16 05:11:31;;;;;;;;;5.00;5.00;;;;;11.04;67.46;101958.19;6193732;22;44702;-56
2023/05/16 05:13:56;;;;;;;;;8.00;5.00;;;;;11.07;67.77;101958.06;6213200;22;45264;-56
2023/05/16 05:16:22;;;;;;;;;5.33;4.00;;;;;11.15;67.59;101943.63;6213575;22;68263;-55
2023/05/16 05:18:47;;;;;;;;;4.67;4.00;;;;;11.22;67.42;101950.47;6213255;22;64369;-56
2023/05/16 05:21:13;;;;;;;;;4.00;4.00;;;;;11.28;67.26;101950.28;6188144;22;45264;-55
2023/05/16 05:23:39;;;;;;;;;3.00;3.00;;;;;11.37;66.85;101957.94;6212845;22;67235;-56
2023/05/16 05:26:04;;;;;;;;;5.00;5.00;;;;;11.54;66.38;101960.00;6214124;22;46421;-56
2023/05/16 05:28:30;;;;;;;;;6.67;4.00;;;;;11.71;66.41;101962.06;6215158;22;45317;-54
2023/05/16 05:30:55;;;;;;;;;8.67;5.00;;;;;11.87;65.19;101961.50;6212530;22;61697;-56
2023/05/16 05:33:26;;;;;;;;;5.33;5.00;;;;;11.92;65.16;101968.38;6213568;22;64247;-55
2023/05/16 05:35:52;;;;;;;;;4.33;4.33;;;;;11.91;64.88;101969.34;6213337;22;45619;-56
2023/05/16 05:38:18;;;;;;;;;3.00;3.00;;;;;11.92;65.01;101965.72;6214587;22;45368;-56
2023/05/16 05:40:43;;;;;;;;;6.33;4.33;;;;;11.96;64.81;101971.84;6214099;22;45410;-56
2023/05/16 05:43:09;;;;;;;;;6.33;4.00;;;;;12.00;64.81;101961.94;6186202;22;67875;-57
2023/05/16 05:45:34;;;;;;;;;3.00;3.00;;;;;12.06;64.27;101965.25;6211135;22;45381;-54
2023/05/16 05:48:00;;;;;;;;;6.67;4.67;;;;;12.14;64.38;101974.78;6188166;22;45432;-55
2023/05/16 05:50:25;;;;;;;;;5.00;3.33;;;;;12.18;64.41;101965.72;6214788;22;45589;-53
2023/05/16 05:52:50;;;;;;;;;6.33;3.33;;;;;12.29;63.83;101976.81;6212521;22;65649;-53
2023/05/16 05:55:16;;;;;;;;;4.67;4.00;;;;;12.35;63.73;101971.25;6186410;22;46658;-52
2023/05/16 05:57:41;;;;;;;;;6.00;3.67;;;;;12.46;62.70;101972.63;6214105;22;45221;-52
2023/05/16 06:00:08;;;;;;;;;4.00;2.67;;;;;12.54;62.68;101973.19;6211760;22;58327;-53
2023/05/16 06:02:34;;;;;;;;;3.00;1.33;;;;;12.62;61.42;101981.78;6212844;22;45369;-51
2023/05/16 06:05:00;;;;;;;;;3.00;3.00;;;;;12.68;61.30;101976.19;6212671;22;46826;-51
2023/05/16 06:07:25;;;;;;;;;3.33;3.33;;;;;12.74;60.26;101981.28;6213430;22;45237;-51
2023/05/16 06:09:51;;;;;;;;;3.33;2.33;;;;;12.80;60.24;101973.97;6185454;22;45847;-51
2023/05/16 06:12:16;;;;;;;;;3.00;3.00;;;;;12.93;60.27;101977.00;6212301;22;45527;-50
2023/05/16 06:14:42;;;;;;;;;5.00;3.00;;;;;12.99;60.43;101980.28;6212374;22;74376;-53
2023/05/16 06:17:07;;;;;;;;;4.00;2.00;;;;;13.14;59.99;101984.13;6213956;22;48164;-51
2023/05/16 06:19:32;;;;;;;;;7.00;4.00;;;;;13.27;59.02;101987.16;6213485;22;62091;-53
2023/05/16 06:21:57;;;;;;;;;5.67;2.00;;;;;13.37;59.05;101990.31;6211892;22;68885;-54
2023/05/16 06:24:23;;;;;;;;;4.00;3.00;;;;;13.33;59.40;101992.22;6207850;22;45929;-52
2023/05/16 06:26:49;;;;;;;;;2.00;2.00;;;;;13.63;58.18;101988.31;6212727;22;63278;-56
2023/05/16 06:29:14;;;;;;;;;1.00;1.00;;;;;13.73;58.24;101993.19;6215342;22;45525;-57
2023/05/16 06:31:40;;;;;;;;;2.00;2.00;;;;;14.21;57.24;101996.38;6213723;22;45609;-57
2023/05/16 06:34:05;;;;;;;;;3.67;2.33;;;;;15.32;55.96;101995.50;6186770;22;47149;-56
2023/05/16 06:36:30;;;;;;;;;3.00;2.33;;;;;16.48;53.35;101991.19;6215144;22;45345;-57
2023/05/16 06:38:56;;;;;;;;;4.67;4.00;;;;;17.73;50.58;101991.97;6213806;22;60248;-57
2023/05/16 06:41:21;;;;;;;;;4.00;1.33;;;;;18.97;49.27;101995.78;6215726;22;45515;-57
2023/05/16 06:43:46;;;;;;;;;3.00;3.00;;;;;19.98;44.35;101995.19;6214413;22;62727;-57
2023/05/16 06:46:12;;;;;;;;;2.33;1.00;;;;;20.86;42.98;101998.78;6216167;22;45313;-57
2023/05/16 06:48:37;;;;;;;;;1.33;1.00;;;;;21.91;41.12;102003.41;6185719;22;56685;-57
2023/05/16 06:51:03;;;;;;;;;3.00;1.33;;;;;22.67;44.02;101991.91;6161922;22;56820;-57
2023/05/16 06:53:28;;;;;;;;;2.00;1.00;;;;;23.84;43.13;101994.69;6215132;22;46058;-57
2023/05/16 06:55:54;;;;;;;;;1.67;1.00;;;;;24.77;41.68;101992.78;6187234;22;49670;-57
2023/05/16 06:58:19;;;;;;;;;2.00;1.00;;;;;25.41;35.42;101996.78;6213856;22;45415;-58
2023/05/16 07:00:45;;;;;;;;;1.00;1.00;;;;;25.71;31.95;102011.22;6214688;22;45213;-57
2023/05/16 07:03:10;;;;;;;;;2.00;2.00;;;;;26.05;34.01;102002.53;6215110;22;46055;-57
2023/05/16 07:05:35;;;;;;;;;1.00;1.00;;;;;26.33;34.17;102010.69;6214007;22;71118;-57
2023/05/16 07:08:01;;;;;;;;;1.00;0.75;;;;;26.40;29.08;102013.69;6214730;22;62425;-58
2023/05/16 07:10:26;;;;;;;;;1.25;1.00;;;;;26.36;30.79;102004.97;6188806;22;45438;-57
2023/05/16 07:12:52;;;;;;;;;3.00;1.00;;;;;26.54;31.49;102001.41;6214752;22;46063;-57
2023/05/16 07:15:17;;;;;;;;;4.75;2.50;;;;;27.06;30.36;102009.81;6214211;22;69040;-57
2023/05/16 07:17:43;;;;;;;;;1.00;1.00;;;;;27.55;30.13;102003.06;6215177;22;45430;-58
2023/05/16 07:20:12;;;;;;;;;1.00;1.00;;;;;28.23;29.96;102010.47;6215815;22;45349;-57
2023/05/16 07:22:38;;;;;;;;;1.00;1.00;;;;;28.68;28.59;102013.91;6214637;22;45495;-58
2023/05/16 07:25:04;;;;;;;;;1.00;0.00;;;;;28.90;28.56;102011.53;6215877;22;45356;-57
2023/05/16 07:27:30;;;;;;;;;1.00;0.75;;;;;29.34;27.94;102024.09;6214097;22;45354;-57
2023/05/16 07:29:56;;;;;;;;;0.25;0.25;;;;;29.68;26.25;102026.63;6215141;22;45378;-57
2023/05/16 07:32:21;;;;;;;;;2.75;1.00;;;;;29.13;25.29;102022.69;6215176;22;46078;-58
2023/05/16 07:34:47;;;;;;;;;1.50;1.00;;;;;29.19;26.00;102021.13;6215033;22;45584;-58
2023/05/16 07:37:13;;;;;;;;;2.50;1.00;;;;;29.73;24.34;102028.84;6188302;22;45360;-57
2023/05/16 07:39:39;;;;;;;;;1.75;1.00;;;;;29.98;22.82;102026.91;6215028;22;45531;-58
2023/05/16 07:42:08;;;;;;;;;0.50;0.00;;;;;30.41;23.40;102031.22;6215179;22;49734;-58
2023/05/16 07:44:33;;;;;;;;;1.00;1.00;;;;;30.16;24.73;102032.19;6188243;22;45336;-58
2023/05/16 07:46:59;;;;;;;;;0.00;0.00;;;;;30.54;24.22;102027.94;6214468;22;45418;-58
2023/05/16 07:49:25;;;;;;;;;1.75;0.75;;;;;31.08;24.81;102027.09;6215211;22;45606;-58
2023/05/16 07:51:50;;;;;;;;;0.00;0.00;;;;;30.73;22.70;102024.72;6215962;22;45234;-58
2023/05/16 07:54:16;;;;;;;;;3.00;2.00;;;;;29.88;23.04;102023.50;6215620;22;45366;-58
2023/05/16 07:56:41;;;;;;;;;2.50;1.00;;;;;29.28;24.52;102030.25;6214377;22;62910;-58
2023/05/16 07:59:06;;;;;;;;;0.00;0.00;;;;;28.98;23.80;102030.72;6215217;22;45456;-58
2023/05/16 08:01:32;;;;;;;;;1.75;0.25;;;;;29.00;24.08;102030.56;6213660;22;75702;-57
2023/05/16 08:03:57;;;;;;;;;1.00;1.00;;;;;30.07;24.11;102030.50;6187754;22;45333;-58
2023/05/16 08:06:22;;;;;;;;;1.75;1.00;;;;;30.99;20.89;102023.53;6214459;22;62898;-58
2023/05/16 08:08:48;;;;;;;;;2.00;2.00;;;;;31.97;22.98;102015.44;6214060;22;60797;-57
2023/05/16 08:11:14;;;;;;;;;6.00;2.00;;;;;32.54;20.55;102015.75;6211960;22;75996;-58
2023/05/16 08:13:40;;;;;;;;;4.00;1.00;;;;;32.29;19.99;102035.34;6213486;22;65232;-58
2023/05/16 08:16:05;;;;;;;;;7.25;3.50;;;;;31.88;19.76;102028.44;6215444;22;45387;-58
2023/05/16 08:18:31;;;;;;;;;5.50;3.25;;;;;32.10;21.14;102026.63;6188155;22;45337;-58
2023/05/16 08:20:56;;;;;;;;;3.25;2.75;;;;;33.01;21.38;102022.66;6215047;22;45508;-58
2023/05/16 08:23:21;;;;;;;;;5.25;1.25;;;;;33.79;20.90;102035.59;6214215;22;54607;-58
2023/05/16 08:25:47;;;;;;;;;1.75;1.00;;;;;34.21;18.92;102032.88;6213718;22;53568;-58
2023/05/16 08:28:12;;;;;;;;;2.00;2.00;;;;;34.70;19.80;102031.81;6214140;22;45151;-58
2023/05/16 08:30:37;;;;;;;;;9.00;9.00;;;;;35.51;17.68;102031.94;6213397;22;73917;-58
2023/05/16 08:33:05;;;;;;;;;1.75;1.75;;;;;34.13;17.89;102033.91;6186776;22;68577;-58
2023/05/16 08:35:30;;;;;;;;;5.00;5.00;;;;;31.41;19.35;102043.31;6215420;22;45538;-58
2023/05/16 08:37:56;;;;;;;;;3.75;1.50;;;;;30.07;21.10;102043.38;6214747;22;45355;-58
2023/05/16 08:40:25;;;;;;;;;0.00;0.00;;;;;28.57;22.09;102044.28;6215076;22;45991;-58
2023/05/16 08:42:50;;;;;;;;;2.00;0.25;;;;;28.34;22.66;102035.81;6214353;22;45280;-58
2023/05/16 08:45:16;;;;;;;;;1.00;1.00;;;;;30.00;22.73;102035.00;6215323;22;45254;-58
2023/05/16 08:47:41;;;;;;;;;0.50;0.50;;;;;32.34;19.02;102032.88;6188067;22;45519;-58
2023/05/16 08:50:08;;;;;;;;;2.75;1.00;;;;;34.28;19.75;102033.78;6188086;22;45963;-57
2023/05/16 08:52:34;;;;;;;;;1.50;1.00;;;;;34.01;17.10;102028.13;6215291;22;45367;-58
2023/05/16 08:55:10;;;;;;;;;2.00;1.00;;;;;33.47;17.88;102032.41;6163101;22;45322;-57
2023/05/16 08:57:36;;;;;;;;;2.00;0.00;;;;;32.29;19.32;102024.34;6213748;22;45201;-57
2023/05/16 09:00:06;;;;;;;;;1.75;1.00;;;;;31.93;18.48;102025.09;6214384;22;45907;-57
2023/05/16 09:02:31;;;;;;;;;0.00;0.00;;;;;33.11;19.39;102023.16;6214681;22;45264;-59
2023/05/16 09:04:57;;;;;;;;;0.00;0.00;;;;;35.56;17.06;102023.88;6188131;22;45402;-57
2023/05/16 09:07:23;;;;;;;;;1.50;1.50;;;;;37.35;17.05;102020.50;6214372;22;67227;-57
2023/05/16 09:09:49;;;;;;;;;0.00;0.00;;;;;38.96;15.44;102024.13;6214019;22;45579;-58
2023/05/16 09:12:14;;;;;;;;;1.00;1.00;;;;;40.29;13.90;102035.88;6214852;22;45334;-61
2023/05/16 09:14:41;;;;;;;;;0.25;0.25;;;;;40.97;14.62;102034.13;6214067;22;49317;-58
2023/05/16 09:17:07;;;;;;;;;1.00;0.00;;;;;41.19;12.59;102027.78;6188171;22;45370;-58
2023/05/16 09:19:39;;;;;;;;;0.00;0.00;;;;;41.26;12.86;102033.19;6214907;22;46363;-58
2023/05/16 09:22:08;;;;;;;;;2.40;0.00;;;;;41.74;13.58;102030.88;6215088;22;45258;-58
2023/05/16 09:24:37;;;;;;;;;0.00;0.00;;;;;42.83;13.80;102027.44;6215233;22;45285;-59
2023/05/16 09:27:13;;;;;;;;;0.50;0.50;;;;;43.84;11.55;102025.66;6214955;22;45530;-58
2023/05/16 09:29:42;;;;;;;;;0.00;0.00;;;;;43.97;12.94;102031.91;6213726;22;46039;-58
2023/05/16 09:32:17;;;;;;;;;0.60;0.60;;;;;44.17;10.98;102039.53;6215394;22;45520;-58
2023/05/16 09:34:48;;;;;;;;;0.00;0.00;;;;;44.68;10.45;102036.88;6214868;22;45347;-58
2023/05/16 09:37:22;;;;;;;;;0.50;0.50;;;;;45.23;11.08;102037.22;6215930;22;45457;-58
2023/05/16 09:39:53;;;;;;;;;0.75;0.75;;;;;45.03;10.97;102040.00;6213305;22;65224;-58
2023/05/16 09:42:19;;;;;;;;;0.00;0.00;;;;;42.47;11.32;102036.28;6214688;22;45447;-58
2023/05/16 09:44:49;;;;;;;;;0.00;0.00;;;;;39.97;12.25;102028.75;6214768;22;45676;-59
2023/05/16 09:47:16;;;;;;;;;0.25;0.00;;;;;38.96;13.86;102032.47;6215370;22;45680;-58
2023/05/16 09:49:43;;;;;;;;;0.00;0.00;;;;;36.69;14.61;102030.97;6212814;22;45357;-58
2023/05/16 09:52:08;;;;;;;;;0.00;0.00;;;;;34.59;15.28;102026.94;6188645;22;45333;-58
2023/05/16 09:54:34;;;;;;;;;2.00;0.75;;;;;32.84;16.66;102032.22;6187307;22;62863;-58
2023/05/16 09:57:00;;;;;;;;;1.00;1.00;;;;;31.65;17.46;102029.38;6187299;22;45528;-58
2023/05/16 09:59:29;;;;;;;;;1.75;0.50;;;;;31.26;17.79;102035.84;6186675;22;45460;-57
2023/05/16 10:01:57;;;;;;;;;1.00;0.75;;;;;31.30;17.95;102036.34;6186717;22;45389;-58
2023/05/16 10:04:23;;;;;;;;;0.75;0.75;;;;;30.29;18.45;102026.13;6214221;22;45307;-57
2023/05/16 10:06:50;;;;;;;;;1.00;1.00;;;;;28.96;19.51;102031.94;6214732;22;45264;-58
2023/05/16 10:09:17;;;;;;;;;0.75;0.00;;;;;28.51;20.06;102043.09;6214792;22;45833;-58
2023/05/16 10:11:44;;;;;;;;;0.25;0.25;;;;;30.62;19.65;102033.38;6217199;22;45329;-57
2023/05/16 10:14:10;;;;;;;;;2.00;1.00;;;;;34.03;18.41;102023.25;6216349;22;45590;-57
2023/05/16 10:16:36;;;;;;;;;0.00;0.00;;;;;34.96;16.59;102030.22;6215103;22;45499;-58
2023/05/16 10:19:02;;;;;;;;;2.00;0.00;;;;;33.06;17.17;102031.16;6190760;22;50162;-58
2023/05/16 10:21:29;;;;;;;;;0.50;0.00;;;;;32.53;17.42;102022.31;6191019;22;45680;-58
2023/05/16 10:23:56;;;;;;;;;0.25;0.00;;;;;33.84;16.93;102015.72;6190362;22;45328;-58
2023/05/16 10:26:22;;;;;;;;;0.25;0.00;;;;;35.24;16.18;102020.88;6217595;22;45280;-58
2023/05/16 10:28:48;;;;;;;;;0.50;0.50;;;;;36.67;13.86;102032.25;6189686;22;47362;-57
2023/05/16 10:31:15;;;;;;;;;2.00;0.00;;;;;38.46;13.68;102027.19;6217864;22;45392;-57
2023/05/16 10:33:40;;;;;;;;;2.50;1.00;;;;;39.43;12.62;102017.81;6217412;22;45553;-58
2023/05/16 10:36:08;;;;;;;;;0.00;0.00;;;;;40.66;12.53;102025.16;6217070;22;70590;-58
2023/05/16 10:38:33;;;;;;;;;2.00;0.00;;;;;41.69;10.59;102019.63;6190856;22;46386;-58
2023/05/16 10:40:59;;;;;;;;;0.00;0.00;;;;;42.97;11.30;102007.16;6190307;22;45311;-58
2023/05/16 10:43:26;;;;;;;;;0.25;0.25;;;;;44.26;10.84;102012.66;6165549;22;45291;-58
2023/05/16 10:46:02;;;;;;;;;0.00;0.00;;;;;45.06;10.21;102023.44;6215837;22;45413;-58
2023/05/16 10:48:32;;;;;;;;;0.00;0.00;;;;;45.30;9.25;102022.88;6190317;22;45512;-58
2023/05/16 10:50:57;;;;;;;;;1.00;0.75;;;;;43.07;10.86;102025.97;6217287;22;45406;-58
2023/05/16 10:53:31;;;;;;;;;0.00;0.00;;;;;40.07;11.94;102021.75;6217476;22;45736;-57
2023/05/16 10:55:59;;;;;;;;;0.50;0.00;;;;;39.63;12.70;102019.41;6190077;22;45598;-58
2023/05/16 10:58:34;;;;;;;;;0.00;0.00;;;;;39.20;12.48;102021.41;6217171;22;46234;-58
2023/05/16 11:01:16;;;;;;;;;1.40;0.80;;;;;40.65;12.22;102022.63;6216482;22;45347;-58
2023/05/16 11:03:59;;;;;;;;;0.00;0.00;;;;;42.05;11.84;102015.38;6217352;22;45328;-58
2023/05/16 11:06:40;;;;;;;;;0.00;0.00;;;;;43.04;11.56;102017.25;6217647;22;45460;-58
2023/05/16 11:09:16;;;;;;;;;0.00;0.00;;;;;43.59;10.53;102018.81;6217512;22;45475;-58
2023/05/16 11:11:51;;;;;;;;;0.40;0.00;;;;;43.36;9.56;102008.84;6216874;22;45289;-58
2023/05/16 11:14:27;;;;;;;;;0.00;0.00;;;;;43.35;10.38;102009.97;6217892;22;45304;-58
2023/05/16 11:17:12;;;;;;;;;0.00;0.00;;;;;42.10;11.09;102014.59;6190113;22;45299;-58
2023/05/16 11:19:40;;;;;;;;;0.00;0.00;;;;;40.77;11.96;102017.00;6216495;22;47322;-58
2023/05/16 11:22:10;;;;;;;;;0.40;0.00;;;;;41.28;11.27;102011.47;6215816;22;45286;-58
2023/05/16 11:24:37;;;;;;;;;0.00;0.00;;;;;39.92;11.17;102017.56;6188158;22;45635;-58
2023/05/16 11:27:03;;;;;;;;;0.00;0.00;;;;;38.72;12.58;102009.31;6214746;22;45428;-58
2023/05/16 11:29:35;;;;;;;;;1.00;0.00;;;;;38.31;12.97;102014.56;6214657;22;45986;-58
2023/05/16 11:32:03;;;;;;;;;0.00;0.00;;;;;37.86;13.39;102014.88;6188138;22;45765;-58
2023/05/16 11:34:36;;;;;;;;;0.20;0.20;;;;;36.40;13.38;102018.53;6185581;22;45417;-58
2023/05/16 11:37:01;;;;;;;;;1.00;0.25;;;;;36.49;13.78;102014.47;6214931;22;45377;-58
2023/05/16 11:39:30;;;;;;;;;0.00;0.00;;;;;37.53;13.63;102002.19;6187133;22;49270;-58
2023/05/16 11:41:55;;;;;;;;;0.40;0.00;;;;;38.83;13.46;102010.44;6214784;22;45278;-58
2023/05/16 11:44:21;;;;;;;;;0.00;0.00;;;;;37.76;13.53;102018.19;6215208;22;60464;-58
2023/05/16 11:46:46;;;;;;;;;0.75;0.75;;;;;38.01;12.74;102011.75;6215300;22;45262;-58
2023/05/16 11:49:12;;;;;;;;;0.00;0.00;;;;;38.91;13.26;102010.09;6187712;22;46150;-58
2023/05/16 11:51:42;;;;;;;;;0.00;0.00;;;;;39.62;12.03;102007.41;6214402;22;45451;-58
2023/05/16 11:54:11;;;;;;;;;1.00;0.00;;;;;39.64;11.44;102008.00;6186470;22;45650;-58
2023/05/16 11:56:38;;;;;;;;;0.00;0.00;;;;;39.94;11.74;101998.63;6186929;22;45264;-57
2023/05/16 11:59:04;;;;;;;;;0.00;0.00;;;;;39.76;11.88;102013.56;6215195;22;45360;-58
2023/05/16 12:01:38;;;;;;;;;1.75;0.00;;;;;39.61;11.37;102008.47;6212933;22;45483;-58
2023/05/16 12:04:12;;;;;;;;;0.00;0.00;;;;;39.20;11.00;102008.38;6214881;22;45352;-58
2023/05/16 12:06:38;;;;;;;;;1.00;1.00;;;;;39.13;11.28;102006.75;6187750;22;45822;-58
2023/05/16 12:09:11;;;;;;;;;1.00;0.00;;;;;39.19;11.76;101997.47;6214148;22;45352;-58
2023/05/16 12:11:41;;;;;;;;;0.00;0.00;;;;;38.82;11.23;101992.06;6214474;22;45317;-58
2023/05/16 12:14:07;;;;;;;;;1.75;0.00;;;;;37.79;12.15;101987.22;6213989;22;45345;-58
2023/05/16 12:16:35;;;;;;;;;1.00;1.00;;;;;35.59;12.86;101984.69;6188690;22;45357;-58
2023/05/16 12:19:01;;;;;;;;;0.00;0.00;;;;;32.74;15.16;101992.09;6215169;22;46176;-58
2023/05/16 12:21:26;;;;;;;;;0.00;0.00;;;;;30.12;18.21;101995.16;6188458;22;45420;-58
2023/05/16 12:23:56;;;;;;;;;2.00;0.25;;;;;28.44;19.69;101994.66;6213938;22;68333;-58
2023/05/16 12:26:29;;;;;;;;;0.00;0.00;;;;;27.47;20.50;101992.94;6215084;22;45265;-58
2023/05/16 12:28:59;;;;;;;;;0.00;0.00;;;;;26.60;20.64;101980.84;6213898;22;46367;-58
2023/05/16 12:31:25;;;;;;;;;1.75;0.75;;;;;25.91;20.88;101984.75;6214972;22;45756;-57
2023/05/16 12:33:54;;;;;;;;;0.00;0.00;;;;;25.24;21.83;102001.09;6214873;22;45276;-58
2023/05/16 12:36:20;;;;;;;;;0.75;0.75;;;;;24.77;22.56;101990.91;6215594;22;45436;-58
2023/05/16 12:38:46;;;;;;;;;1.00;0.75;;;;;24.44;22.82;101989.38;6214917;22;46248;-57
2023/05/16 12:41:17;;;;;;;;;2.00;1.00;;;;;24.21;23.40;101991.44;6214684;22;45170;-57
2023/05/16 12:43:42;;;;;;;;;2.00;1.00;;;;;24.01;24.00;101990.53;6213959;22;45410;-58
2023/05/16 12:46:10;;;;;;;;;3.00;0.50;;;;;23.77;24.23;101980.81;6214316;22;65146;-58
2023/05/16 12:48:35;;;;;;;;;1.75;1.00;;;;;23.64;23.85;101977.44;6213043;22;46269;-58
2023/05/16 12:51:17;;;;;;;;;0.00;0.00;;;;;23.51;23.78;101988.53;6187809;22;45293;-58
2023/05/16 12:53:44;;;;;;;;;0.25;0.25;;;;;23.48;24.03;101978.78;6214578;22;45279;-57
2023/05/16 12:56:11;;;;;;;;;0.50;0.00;;;;;23.29;24.56;101974.06;6213589;22;45372;-57
2023/05/16 12:58:37;;;;;;;;;3.00;1.00;;;;;23.20;24.63;101989.28;6213769;22;46330;-58
2023/05/16 13:01:02;;;;;;;;;1.00;0.00;;;;;23.13;24.43;101971.78;6186214;22;45760;-57
2023/05/16 13:03:29;;;;;;;;;1.00;1.00;;;;;23.13;25.78;101979.94;6212174;22;45455;-58
2023/05/16 13:05:54;;;;;;;;;1.50;1.00;;;;;23.14;25.32;101973.56;6213647;22;45717;-57
2023/05/16 13:08:20;;;;;;;;;2.00;1.00;;;;;23.10;24.77;101985.59;6213089;22;46102;-57
2023/05/16 13:10:45;;;;;;;;;0.00;0.00;;;;;22.92;24.69;101979.91;6211145;22;72450;-57
2023/05/16 13:13:10;;;;;;;;;0.75;0.50;;;;;22.90;24.87;101979.16;6184945;22;65623;-57
2023/05/16 13:15:36;;;;;;;;;2.75;1.00;;;;;23.00;25.35;101982.81;6214364;22;45203;-57
2023/05/16 13:18:02;;;;;;;;;0.00;0.00;;;;;22.77;25.49;101980.19;6186319;22;48064;-57
2023/05/16 13:20:28;;;;;;;;;1.00;1.00;;;;;22.59;25.73;101979.00;6161573;22;45349;-57
2023/05/16 13:22:54;;;;;;;;;1.67;0.67;;;;;22.49;25.76;101984.34;6185417;22;68285;-57
2023/05/16 13:25:20;;;;;;;;;1.00;1.00;;;;;22.41;26.08;101981.38;6214969;22;45404;-58
2023/05/16 13:27:45;;;;;;;;;2.00;0.50;;;;;22.23;26.21;101984.59;6186256;22;45395;-57
2023/05/16 13:30:11;;;;;;;;;1.00;1.00;;;;;22.07;26.79;101984.97;6214234;22;45293;-57
2023/05/16 13:32:36;;;;;;;;;0.00;0.00;;;;;21.98;26.60;101978.44;6214652;22;45647;-57
2023/05/16 13:35:02;;;;;;;;;0.00;0.00;;;;;22.08;27.35;101986.66;6187384;22;45347;-57
2023/05/16 13:37:28;;;;;;;;;0.00;0.00;;;;;22.26;26.46;101975.34;6187422;22;46270;-57
2023/05/16 13:39:54;;;;;;;;;1.00;1.00;;;;;22.31;26.46;101979.38;6212833;22;45328;-57
2023/05/16 13:42:20;;;;;;;;;1.00;1.00;;;;;22.28;26.55;101981.47;6214517;22;45323;-57
2023/05/16 13:44:45;;;;;;;;;0.00;0.00;;;;;22.21;26.35;101986.53;6213537;22;45371;-57
2023/05/16 13:47:11;;;;;;;;;2.50;1.00;;;;;22.23;26.98;101984.59;6214229;22;45452;-57
2023/05/16 13:49:37;;;;;;;;;1.00;1.00;;;;;22.22;26.97;101988.28;6214359;22;45363;-57
2023/05/16 13:52:03;;;;;;;;;0.75;0.75;;;;;22.14;27.39;101979.91;6213267;22;45637;-57
2023/05/16 13:54:29;;;;;;;;;1.33;1.00;;;;;22.28;27.34;101982.38;6212898;22;45430;-57
2023/05/16 13:56:54;;;;;;;;;1.00;1.00;;;;;22.48;27.14;101981.75;6213811;22;45365;-58
2023/05/16 13:59:19;;;;;;;;;1.00;1.00;;;;;22.41;26.33;101993.09;6214834;22;45297;-58
2023/05/16 14:01:45;;;;;;;;;0.00;0.00;;;;;22.08;27.24;101993.94;6213467;22;48700;-57
2023/05/16 14:04:10;;;;;;;;;0.00;0.00;;;;;22.02;27.16;102003.44;6214817;22;45422;-58
2023/05/16 14:06:36;;;;;;;;;0.67;0.67;;;;;21.82;27.60;102005.00;6214516;22;45472;-57
2023/05/16 14:09:02;;;;;;;;;0.00;0.00;;;;;21.69;27.18;101994.28;6212386;22;45295;-58
2023/05/16 14:11:27;;;;;;;;;2.00;0.33;;;;;21.56;28.19;101999.81;6213852;22;45227;-58
2023/05/16 14:13:53;;;;;;;;;0.67;0.67;;;;;21.48;27.39;101989.56;6212603;22;45559;-58
2023/05/16 14:16:19;;;;;;;;;0.00;0.00;;;;;21.24;27.40;102004.97;6187563;22;48109;-58
2023/05/16 14:18:44;;;;;;;;;0.67;0.67;;;;;21.17;28.04;101998.31;6213730;22;45647;-57
2023/05/16 14:21:09;;;;;;;;;0.00;0.00;;;;;21.40;27.75;101988.41;6213135;22;45357;-58
2023/05/16 14:23:35;;;;;;;;;1.00;1.00;;;;;21.85;27.81;101987.66;6211574;22;45272;-57
2023/05/16 14:26:01;;;;;;;;;4.00;1.00;;;;;22.12;27.85;101993.59;6213811;22;46198;-57
2023/05/16 14:28:26;;;;;;;;;2.00;2.00;;;;;22.21;27.38;101985.69;6213978;22;45222;-57
2023/05/16 14:30:53;;;;;;;;;1.33;1.00;;;;;22.17;27.66;102001.31;6214093;22;45534;-58
2023/05/16 14:33:20;;;;;;;;;0.33;0.33;;;;;21.89;26.44;101992.72;6187888;22;45259;-58
2023/05/16 14:35:48;;;;;;;;;5.00;1.00;;;;;21.73;26.91;101994.91;6213530;22;45316;-57
2023/05/16 14:38:15;;;;;;;;;1.00;1.00;;;;;21.63;27.06;101995.63;6214108;22;45316;-57
2023/05/16 14:40:40;;;;;;;;;1.00;1.00;;;;;21.55;27.83;101994.50;6186178;22;45254;-57
2023/05/16 14:43:06;;;;;;;;;1.00;1.00;;;;;21.54;28.17;101993.66;6214672;22;68346;-58
2023/05/16 14:45:32;;;;;;;;;1.00;1.00;;;;;21.66;27.92;101990.97;6213887;22;46928;-57
2023/05/16 14:47:57;;;;;;;;;0.00;0.00;;;;;21.73;28.40;101987.66;6213911;22;45321;-57
2023/05/16 14:50:22;;;;;;;;;1.67;1.00;;;;;21.75;27.93;101996.50;6214228;22;45611;-57
2023/05/16 14:52:48;;;;;;;;;1.33;1.33;;;;;21.70;28.36;101996.00;6214303;22;45535;-57
2023/05/16 14:55:14;;;;;;;;;1.00;1.00;;;;;21.60;28.41;101997.72;6212549;22;45946;-57
2023/05/16 14:57:40;;;;;;;;;1.00;0.50;;;;;21.59;28.19;102001.38;6187149;22;45502;-57
2023/05/16 15:00:06;;;;;;;;;0.50;0.50;;;;;21.59;27.55;101991.44;6163685;22;45322;-57
2023/05/16 15:02:32;;;;;;;;;1.33;0.00;;;;;21.49;27.88;101993.97;6214812;22;45378;-58
2023/05/16 15:04:58;;;;;;;;;1.33;1.00;;;;;21.44;28.26;101993.44;6162972;22;46639;-57
2023/05/16 15:07:24;;;;;;;;;0.00;0.00;;;;;21.44;28.29;101996.16;6186933;22;45297;-57
2023/05/16 15:09:49;;;;;;;;;1.00;1.00;;;;;21.42;28.11;101991.84;6214766;22;45647;-57
2023/05/16 15:12:15;;;;;;;;;0.00;0.00;;;;;21.20;28.13;101993.53;6215316;22;45348;-57
2023/05/16 15:14:40;;;;;;;;;1.33;1.00;;;;;20.96;28.34;101998.94;6214613;22;45824;-57
2023/05/16 15:17:05;;;;;;;;;0.00;0.00;;;;;20.88;28.46;101993.25;6163422;22;45323;-57
2023/05/16 15:19:31;;;;;;;;;2.00;1.00;;;;;20.89;28.65;101995.84;6215145;22;45957;-58
2023/05/16 15:21:56;;;;;;;;;0.00;0.00;;;;;21.02;29.11;101986.81;6187571;22;58396;-57
2023/05/16 15:24:21;;;;;;;;;1.00;1.00;;;;;21.14;28.83;101997.53;6187577;22;68133;-57
2023/05/16 15:26:47;;;;;;;;;1.00;1.00;;;;;21.25;28.74;101988.63;6183928;22;45292;-58
2023/05/16 15:29:12;;;;;;;;;0.67;0.00;;;;;21.36;28.47;101995.91;6211483;22;63167;-58
2023/05/16 15:31:37;;;;;;;;;1.33;0.67;;;;;21.40;28.71;101994.69;6213793;22;67070;-57
2023/05/16 15:34:05;;;;;;;;;0.00;0.00;;;;;21.37;28.41;101980.50;6161816;22;62988;-58
2023/05/16 15:36:30;;;;;;;;;2.00;0.67;;;;;21.25;29.03;101996.75;6215116;22;45318;-57
2023/05/16 15:38:55;;;;;;;;;0.00;0.00;;;;;21.03;28.92;102002.03;6214067;22;64457;-57
2023/05/16 15:41:22;;;;;;;;;0.00;0.00;;;;;20.89;29.57;102001.25;6214359;22;57558;-57
2023/05/16 15:43:47;;;;;;;;;0.00;0.00;;;;;20.87;29.40;102000.53;6213701;22;46259;-58
2023/05/16 15:46:13;;;;;;;;;0.00;0.00;;;;;20.87;29.25;101996.94;6214074;22;45417;-57
2023/05/16 15:48:41;;;;;;;;;2.33;1.00;;;;;20.95;29.75;102002.63;6213209;22;45793;-58
2023/05/16 15:51:07;;;;;;;;;1.00;1.00;;;;;20.99;29.14;101998.72;6214926;22;45583;-58
2023/05/16 15:53:33;;;;;;;;;2.00;1.00;;;;;21.16;29.27;101997.44;6216555;22;46177;-58
2023/05/16 15:55:58;;;;;;;;;1.00;1.00;;;;;21.19;29.41;101994.50;6216080;22;45464;-58
2023/05/16 15:58:24;;;;;;;;;1.50;0.75;;;;;21.31;29.73;101998.97;6213405;22;63008;-57
2023/05/16 16:00:49;;;;;;;;;2.00;2.00;;;;;21.37;29.13;102002.16;6213804;22;45273;-58
2023/05/16 16:03:15;;;;;;;;;0.67;0.67;;;;;21.42;29.86;102011.69;6214774;22;46837;-58
2023/05/16 16:05:40;;;;;;;;;1.67;1.00;;;;;21.44;28.79;102004.28;6213095;22;66072;-58
2023/05/16 16:08:05;;;;;;;;;0.33;0.33;;;;;21.37;29.13;101994.03;6213251;22;68863;-57
2023/05/16 16:10:31;;;;;;;;;1.00;0.00;;;;;21.32;29.22;101995.28;6187388;22;45401;-57
2023/05/16 16:13:03;;;;;;;;;1.00;1.00;;;;;21.19;29.50;102005.31;6214840;22;45351;-57
2023/05/16 16:15:29;;;;;;;;;0.00;0.00;;;;;21.31;29.38;102008.91;6188716;22;45359;-58
2023/05/16 16:17:56;;;;;;;;;1.00;1.00;;;;;21.32;28.58;101997.97;6215151;22;45359;-58
2023/05/16 16:20:21;;;;;;;;;2.50;2.00;;;;;21.30;29.09;102012.59;6215467;22;45412;-58
2023/05/16 16:22:47;;;;;;;;;1.00;1.00;;;;;21.44;28.90;102011.56;6187137;22;46602;-58